X  Sluiten METAR luchtvaart weer gegevens      EHKD De Kooy Airport
Temperatuur
6°C Temperatuur
1°C Dauwpunt
71% Vochtigheid



Wind
23 KM/U
14 MPH
6 M/S
12 KTS



330°
NNW
Huidig weer

Wat bewolking Wat bewolking
Luchtdruk 1010.84 (hPa) - 29.85 (inHg)
Zicht 6 (mijl) - 9.7 (km)
Vliegveld
Vliegveld code EHKD

Locatie : De Kooy Airport
Afstand: 34 (km)

Metar:
EHKD 240203Z AUTO 33012KT 280V010 9999 FEW024 06/01 Q1011 BLU

Tijd: 24-04-2024 04:03 CEST